Accueil
METAR-TAF:

METAR-TAF

Aéroports :

Aéroport de Mannheim

Mannheim, Allemagne

latitude: 49-28-21N, longitude: 008-30-56E, altitude: 100 m

Observation

Le bulletin a été fait il y a 1 heure et 8 minutes, à 19:20 UTC
Vent 2 kt de direction variable
Température 2°C
Humidité 93%
Pression 1022 hPa
Visibilité: 4500 m
Ciel couvert à une hauteur de 200 ft
brume

METAR: EDFM 261920Z VRB02KT 4500 BR OVC002 02/01 Q1022

Heure: 21:28 (20:28 UTC)

Prévision

Le bulletin a été fait il y a 3 heures et 28 minutes, à 17:00 UTC
Prévision valable du 26 à 18 UTC au 26 à 21 UTC
Vent 2 kt de direction variable
Visibilité: 6000 m
Nuages fragmentés à une hauteur de 500 ft
Evoluant progressivement
du 26 à 18 UTC au 26 à 21 UTC
Visibilité: 3000 m
Ciel couvert à une hauteur de 300 ft
brume

TAF: EDFM 261700Z 2618/2621 VRB02KT 6000 BKN005 BECMG 2618/2621 3000 BR OVC003

Observations et prévisions météorologiques de plus de 4000 aéroports (messages METAR et TAF).

Les stations disponibles sont représentées par des disques jaunes et rouges sur la carte.

Passer la souris dessus pour voir le nom de la station.

Cliquer dessus pour voir les observations et prévisions météorologiques.

Pour changer de carte: cliquez sur les boutons verts avec une croix noire pour zoomer, sur le bouton vert avec un tiret pour effectuer un zoom arrière, ou sur les flèches vertes pour les cartes adjacentes.


METAR-TAF: